createdAt,value
2022-11-20T00:03:45.164Z,99774.63
2022-11-20T00:08:49.707Z,99783.66
2022-11-20T00:13:54.199Z,99780.97
2022-11-20T00:18:57.158Z,99778.03
2022-11-20T00:24:01.531Z,99779.16
2022-11-20T00:29:04.876Z,99768.47
2022-11-20T00:34:07.757Z,99771.94
2022-11-20T00:39:11.911Z,99772.03
2022-11-20T00:44:14.708Z,99779.25
2022-11-20T00:49:17.583Z,99790.06
2022-11-20T00:54:21.799Z,99774.84
2022-11-20T00:59:24.807Z,99765.69
2022-11-20T01:04:27.542Z,99766.78
2022-11-20T01:09:31.642Z,99775.72
2022-11-20T01:14:34.403Z,99764.91
2022-11-20T01:19:37.171Z,99763.09
2022-11-20T01:24:41.335Z,99765.06
2022-11-20T01:29:44.034Z,99772.28
2022-11-20T01:34:47.101Z,99775.72
2022-11-20T01:39:51.189Z,99772.16
2022-11-20T01:44:58.158Z,99768.63
2022-11-20T01:50:04.990Z,99753.28
2022-11-20T01:55:13.114Z,99752.28
2022-11-20T02:00:18.295Z,99751.44
2022-11-20T02:05:27.692Z,99747.75
2022-11-20T02:10:32.058Z,99738.09
2022-11-20T02:15:35.732Z,99735.53
2022-11-20T02:20:39.037Z,99742.88
2022-11-20T02:25:45.535Z,99735.03
2022-11-20T02:30:48.272Z,99740.34
2022-11-20T02:35:51.224Z,99731.16
2022-11-20T02:40:55.855Z,99729.22
2022-11-20T02:45:58.821Z,99732.06
2022-11-20T02:51:01.583Z,99726.38
2022-11-20T02:56:06.405Z,99724.56
2022-11-20T03:01:09.209Z,99727.13
2022-11-20T03:06:12.191Z,99716.97
2022-11-20T03:11:16.843Z,99724.69
2022-11-20T03:16:22.080Z,99719.78
2022-11-20T03:21:24.880Z,99719.41
2022-11-20T03:26:29.151Z,99718.16
2022-11-20T03:31:33.424Z,99714.25
2022-11-20T03:36:36.528Z,99713.03
2022-11-20T03:41:43.088Z,99701.97
2022-11-20T03:46:45.828Z,99703.19
2022-11-20T03:51:48.677Z,99691.16
2022-11-20T03:56:52.796Z,99694.31
2022-11-20T04:01:55.588Z,99686.00
2022-11-20T04:06:58.445Z,99673.03
2022-11-20T04:12:02.588Z,99675.44
2022-11-20T04:17:05.572Z,99691.06
2022-11-20T04:22:08.354Z,99693.16
2022-11-20T04:27:12.474Z,99688.31
2022-11-20T04:32:15.262Z,99689.56
2022-11-20T04:37:17.991Z,99687.22
2022-11-20T04:42:30.791Z,99683.88
2022-11-20T04:47:33.534Z,99681.66
2022-11-20T04:52:36.393Z,99684.69
2022-11-20T04:57:40.540Z,99686.00
2022-11-20T05:02:43.320Z,99684.59
2022-11-20T05:07:46.095Z,99680.31
2022-11-20T05:12:50.242Z,99671.63
2022-11-20T05:17:54.109Z,99667.47
2022-11-20T05:22:58.757Z,99670.50
2022-11-20T05:28:02.913Z,99671.47
2022-11-20T05:33:05.651Z,99670.81
2022-11-20T05:38:08.448Z,99672.97
2022-11-20T05:43:12.558Z,99666.97
2022-11-20T05:48:15.289Z,99650.75
2022-11-20T05:53:18.023Z,99654.50
2022-11-20T05:58:22.083Z,99644.94
2022-11-20T06:03:24.825Z,99639.69
2022-11-20T06:08:27.576Z,99641.66
2022-11-20T06:13:31.640Z,99640.03
2022-11-20T06:18:34.445Z,99642.09
2022-11-20T06:23:38.384Z,99643.94
2022-11-20T06:28:43.011Z,99644.16
2022-11-20T06:33:46.258Z,99647.06
2022-11-20T06:38:49.894Z,99652.53
2022-11-20T06:43:54.044Z,99656.44
2022-11-20T06:48:56.781Z,99648.59
2022-11-20T06:53:59.548Z,99653.97
2022-11-20T06:59:07.827Z,99649.03
2022-11-20T07:04:10.591Z,99649.88
2022-11-20T07:09:13.365Z,99640.25
2022-11-20T07:14:17.484Z,99638.41
2022-11-20T07:19:20.583Z,99633.25
2022-11-20T07:24:23.599Z,99631.41
2022-11-20T07:29:27.718Z,99636.19
2022-11-20T07:34:30.451Z,99644.22
2022-11-20T07:39:33.210Z,99636.25
2022-11-20T07:44:37.644Z,99645.09
2022-11-20T07:49:40.405Z,99643.13
2022-11-20T07:54:43.240Z,99642.16
2022-11-20T07:59:47.480Z,99644.09
2022-11-20T08:04:50.282Z,99630.56
2022-11-20T08:09:53.046Z,99632.41
2022-11-20T08:14:59.867Z,99625.31
2022-11-20T08:20:02.694Z,99622.63
2022-11-20T08:25:06.285Z,99619.09
2022-11-20T08:30:12.383Z,99609.31
2022-11-20T08:35:15.162Z,99613.81
2022-11-20T08:40:19.692Z,99604.69
2022-11-20T08:45:24.270Z,99618.84
2022-11-20T08:50:27.081Z,99621.53
2022-11-20T08:55:29.834Z,99639.41
2022-11-20T09:00:34.301Z,99633.97
2022-11-20T09:05:37.142Z,99625.25
2022-11-20T09:10:40.713Z,99632.22
2022-11-20T09:15:44.775Z,99630.25
2022-11-20T09:20:47.567Z,99634.31
2022-11-20T09:25:50.371Z,99631.56
2022-11-20T09:30:54.448Z,99633.34
2022-11-20T09:35:57.196Z,99634.47
2022-11-20T09:41:05.053Z,99625.78
2022-11-20T09:46:16.888Z,99618.28
2022-11-20T09:51:32.448Z,99609.00
2022-11-20T09:56:39.836Z,99613.09
2022-11-20T10:01:45.618Z,99624.16
2022-11-20T10:07:30.681Z,99618.06
2022-11-20T10:12:29.124Z,99608.84
2022-11-20T10:18:00.931Z,99605.03
2022-11-20T10:23:31.753Z,99588.06
2022-11-20T10:28:57.162Z,99595.03
2022-11-20T10:34:12.590Z,99579.16
2022-11-20T10:39:25.016Z,99579.09
2022-11-20T10:44:47.511Z,99581.13
2022-11-20T10:49:55.170Z,99570.66
2022-11-20T10:55:05.592Z,99554.84
2022-11-20T11:00:10.981Z,99543.50
2022-11-20T11:05:38.060Z,99535.97
2022-11-20T11:10:48.487Z,99532.81
2022-11-20T11:15:52.012Z,99521.72
2022-11-20T11:20:57.130Z,99511.59
2022-11-20T11:26:01.332Z,99518.44
2022-11-20T11:31:04.151Z,99512.97
2022-11-20T11:36:21.156Z,99512.56
2022-11-20T11:41:27.811Z,99499.78
2022-11-20T11:46:33.911Z,99520.31
2022-11-20T11:51:47.893Z,99511.06
2022-11-20T11:56:51.522Z,99504.47
2022-11-20T12:01:59.658Z,99502.50
2022-11-20T12:07:44.285Z,99500.56
2022-11-20T12:12:42.196Z,99508.53
2022-11-20T12:17:45.006Z,99504.59
2022-11-20T12:22:57.950Z,99493.75
2022-11-20T12:28:27.436Z,99493.47
2022-11-20T12:33:56.811Z,99486.78
2022-11-20T12:39:10.902Z,99485.28
2022-11-20T12:44:46.366Z,99482.59
2022-11-20T12:50:01.948Z,99471.75
2022-11-20T12:55:19.011Z,99470.47
2022-11-20T13:00:23.647Z,99470.13
2022-11-20T13:05:33.505Z,99470.09
2022-11-20T13:10:44.161Z,99461.66
2022-11-20T13:15:56.853Z,99463.97
2022-11-20T13:20:59.765Z,99456.47
2022-11-20T13:26:16.889Z,99461.63
2022-11-20T13:31:32.573Z,99466.63
2022-11-20T13:36:37.475Z,99466.13
2022-11-20T13:41:42.296Z,99457.03
2022-11-20T13:46:47.177Z,99450.09
2022-11-20T13:51:52.586Z,99452.78
2022-11-20T13:57:06.686Z,99449.09
2022-11-20T14:02:15.235Z,99434.78
2022-11-20T14:07:19.907Z,99428.56
2022-11-20T14:12:29.338Z,99418.72
2022-11-20T14:17:34.148Z,99423.16
2022-11-20T14:22:37.494Z,99430.63
2022-11-20T14:27:44.064Z,99433.47
2022-11-20T14:32:49.733Z,99436.25
2022-11-20T14:37:53.361Z,99435.16
2022-11-20T14:42:57.753Z,99437.59
2022-11-20T14:48:01.885Z,99427.41
2022-11-20T14:53:04.708Z,99415.13
2022-11-20T14:58:23.276Z,99425.38
2022-11-20T15:03:33.717Z,99430.16
2022-11-20T15:08:36.716Z,99436.84
2022-11-20T15:13:41.440Z,99437.19
2022-11-20T15:18:44.243Z,99435.84
2022-11-20T15:23:47.135Z,99443.53
2022-11-20T15:28:51.527Z,99440.31
2022-11-20T15:33:54.327Z,99430.13
2022-11-20T15:38:57.096Z,99431.56
2022-11-20T15:44:01.234Z,99432.00
2022-11-20T15:49:04.468Z,99437.84
2022-11-20T15:54:12.643Z,99438.31
2022-11-20T15:59:17.217Z,99431.69
2022-11-20T16:04:20.786Z,99423.19
2022-11-20T16:09:23.830Z,99424.59
2022-11-20T16:14:45.571Z,99426.06
2022-11-20T16:19:48.382Z,99416.56
2022-11-20T16:24:51.937Z,99415.16
2022-11-20T16:29:56.064Z,99416.63
2022-11-20T16:34:58.902Z,99418.91
2022-11-20T16:40:01.640Z,99413.13
2022-11-20T16:45:06.875Z,99412.56
2022-11-20T16:50:10.663Z,99405.91
2022-11-20T16:55:13.523Z,99408.06
2022-11-20T17:00:18.061Z,99403.94
2022-11-20T17:05:20.812Z,99408.09
2022-11-20T17:10:23.873Z,99405.69
2022-11-20T17:15:27.961Z,99398.03
2022-11-20T17:20:32.259Z,99398.88
2022-11-20T17:25:35.682Z,99399.47
2022-11-20T17:30:39.900Z,99392.66
2022-11-20T17:35:42.647Z,99383.41
2022-11-20T17:40:46.246Z,99376.16
2022-11-20T17:45:50.510Z,99369.31
2022-11-20T17:50:53.318Z,99374.16
2022-11-20T17:56:14.254Z,99380.44
2022-11-20T18:01:19.228Z,99379.28
2022-11-20T18:06:23.937Z,99376.44
2022-11-20T18:11:28.687Z,99373.03
2022-11-20T18:16:35.342Z,99369.34
2022-11-20T18:21:38.639Z,99357.94
2022-11-20T18:26:44.450Z,99349.16
2022-11-20T18:31:48.913Z,99345.75
2022-11-20T18:36:51.755Z,99343.91
2022-11-20T18:42:12.057Z,99337.78
2022-11-20T18:47:18.297Z,99329.28
2022-11-20T18:52:23.474Z,99331.38
2022-11-20T18:57:28.427Z,99316.19
2022-11-20T19:02:36.603Z,99321.72
2022-11-20T19:07:44.138Z,99310.91
2022-11-20T19:12:47.029Z,99306.66
2022-11-20T19:17:51.978Z,99301.97
2022-11-20T19:22:54.919Z,99287.34
2022-11-20T19:27:57.706Z,99273.53
2022-11-20T19:33:01.915Z,99278.94
2022-11-20T19:38:05.729Z,99266.59
2022-11-20T19:43:08.615Z,99258.50
2022-11-20T19:48:12.891Z,99251.38
2022-11-20T19:53:15.811Z,99243.13
2022-11-20T19:58:18.849Z,99226.09
2022-11-20T20:03:23.296Z,99223.38
2022-11-20T20:08:26.213Z,99210.88
2022-11-20T20:13:29.046Z,99213.59
2022-11-20T20:18:33.131Z,99211.75
2022-11-20T20:23:36.476Z,99203.78
2022-11-20T20:28:40.257Z,99200.94
2022-11-20T20:33:45.311Z,99199.09
2022-11-20T20:38:48.619Z,99205.50
2022-11-20T20:44:09.133Z,99189.41
2022-11-20T20:49:13.985Z,99187.59
2022-11-20T20:54:16.908Z,99174.09
2022-11-20T20:59:19.722Z,99182.31
2022-11-20T21:04:24.127Z,99194.97
2022-11-20T21:09:27.041Z,99176.78
2022-11-20T21:14:29.819Z,99171.25
2022-11-20T21:19:34.286Z,99163.56
2022-11-20T21:24:37.821Z,99155.75
2022-11-20T21:29:40.593Z,99149.66
2022-11-20T21:34:44.734Z,99142.25
2022-11-20T21:39:51.714Z,99130.91
2022-11-20T21:44:54.473Z,99121.97
2022-11-20T21:49:58.777Z,99114.72
2022-11-20T21:55:01.573Z,99114.88
2022-11-20T22:00:06.497Z,99110.16
2022-11-20T22:05:14.561Z,99108.47
2022-11-20T22:10:18.830Z,99100.50
2022-11-20T22:15:45.837Z,99083.75
2022-11-20T22:20:45.837Z,99071.97
2022-11-20T22:25:48.691Z,99062.84
2022-11-20T22:30:51.487Z,99050.34
2022-11-20T22:36:00.886Z,99022.69
2022-11-20T22:41:04.669Z,99018.13
2022-11-20T22:46:08.963Z,99007.44
2022-11-20T22:51:15.604Z,99001.09
2022-11-20T22:56:19.233Z,98992.13
2022-11-20T23:01:23.562Z,98979.63
2022-11-20T23:06:28.117Z,98978.66
2022-11-20T23:11:32.642Z,98966.97
2022-11-20T23:16:36.142Z,98951.94
2022-11-20T23:21:42.164Z,98934.75
2022-11-20T23:26:46.921Z,98928.50
2022-11-20T23:31:49.660Z,98916.41
2022-11-20T23:36:53.881Z,98898.34
2022-11-20T23:41:56.629Z,98892.81
2022-11-20T23:46:59.431Z,98885.16
2022-11-20T23:52:03.659Z,98878.50
2022-11-20T23:57:06.446Z,98872.72
